Time;durP1;ratioP1;P1;durP2;ratioP2;P2;SDS_P1;SDS_P2;PMS_P1;PMS_P2;Temp;Humidity;BMP_temperature;BMP_pressure;BME280_temperature;BME280_humidity;BME280_pressure;Samples;Min_cycle;Max_cycle;Signal;HPM_P1;HPM_P2
2023/03/05 00:01:23;;;;;;;13.40;6.03;;;;;;;;;;5002028;28;20483;-63
2023/03/05 00:03:52;;;;;;;18.20;6.37;;;;;;;;;;4979813;28;20103;-63
2023/03/05 00:06:22;;;;;;;15.65;6.80;;;;;;;;;;4996252;28;20373;-62
2023/03/05 00:08:50;;;;;;;16.85;7.05;;;;;;;;;;4970559;28;21251;-62
2023/03/05 00:11:18;;;;;;;16.45;6.90;;;;;;;;;;4993783;28;20392;-62
2023/03/05 00:13:46;;;;;;;17.70;7.43;;;;;;;;;;4973035;28;20311;-62
2023/03/05 00:16:15;;;;;;;17.47;7.50;;;;;;;;;;4982011;28;20467;-62
2023/03/05 00:18:43;;;;;;;19.08;7.90;;;;;;;;;;4976949;28;20052;-62
2023/03/05 00:21:18;;;;;;;17.05;7.70;;;;;;;;;;4989675;28;20041;-62
2023/03/05 00:23:47;;;;;;;19.50;7.68;;;;;;;;;;4976294;28;20773;-62
2023/03/05 00:26:14;;;;;;;19.23;7.22;;;;;;;;;;4992312;28;20120;-61
2023/03/05 00:28:42;;;;;;;18.67;7.60;;;;;;;;;;4954734;28;21575;-61
2023/03/05 00:31:10;;;;;;;18.08;7.55;;;;;;;;;;5006262;28;20280;-62
2023/03/05 00:33:39;;;;;;;15.48;7.25;;;;;;;;;;4972676;28;20522;-62
2023/03/05 00:36:07;;;;;;;17.58;7.15;;;;;;;;;;5000840;28;20572;-61
2023/03/05 00:38:35;;;;;;;17.50;6.68;;;;;;;;;;4980697;28;20046;-62
2023/03/05 00:41:05;;;;;;;15.60;7.23;;;;;;;;;;4985854;28;20108;-62
2023/03/05 00:43:32;;;;;;;19.20;6.85;;;;;;;;;;4980314;28;20629;-60
2023/03/05 00:46:00;;;;;;;16.40;6.47;;;;;;;;;;4982534;28;20049;-61
2023/03/05 00:48:27;;;;;;;17.10;7.30;;;;;;;;;;5004251;28;20140;-62
2023/03/05 00:50:55;;;;;;;22.67;8.00;;;;;;;;;;4977664;28;20654;-62
2023/03/05 00:53:23;;;;;;;18.70;7.00;;;;;;;;;;4989896;28;20076;-62
2023/03/05 00:55:50;;;;;;;17.90;7.25;;;;;;;;;;4972732;28;20061;-62
2023/03/05 00:58:19;;;;;;;18.83;7.78;;;;;;;;;;4998839;28;20077;-61
2023/03/05 01:00:49;;;;;;;20.55;8.15;;;;;;;;;;4971493;28;21537;-62
2023/03/05 01:03:17;;;;;;;20.17;7.70;;;;;;;;;;4998463;28;20041;-62
2023/03/05 01:05:44;;;;;;;22.87;8.77;;;;;;;;;;4983413;28;20080;-62
2023/03/05 01:08:12;;;;;;;20.60;8.45;;;;;;;;;;4990362;28;20511;-60
2023/03/05 01:10:40;;;;;;;19.15;8.43;;;;;;;;;;4979012;28;20380;-62
2023/03/05 01:13:07;;;;;;;18.85;8.00;;;;;;;;;;4993020;28;20542;-62
2023/03/05 01:15:37;;;;;;;22.75;8.63;;;;;;;;;;4985804;28;20033;-62
2023/03/05 01:18:05;;;;;;;18.77;7.63;;;;;;;;;;5000374;28;20049;-63
2023/03/05 01:20:34;;;;;;;20.55;7.55;;;;;;;;;;4977785;28;20136;-61
2023/03/05 01:23:05;;;;;;;19.58;7.75;;;;;;;;;;5002688;28;20045;-62
2023/03/05 01:25:33;;;;;;;16.60;7.63;;;;;;;;;;4993842;28;20033;-61
2023/03/05 01:28:00;;;;;;;18.40;7.20;;;;;;;;;;4982892;28;20052;-62
2023/03/05 01:30:28;;;;;;;16.37;7.23;;;;;;;;;;4997012;28;20041;-62
2023/03/05 01:32:57;;;;;;;18.77;6.85;;;;;;;;;;4986120;28;20048;-62
2023/03/05 01:35:25;;;;;;;16.02;7.18;;;;;;;;;;4997896;28;20132;-61
2023/03/05 01:37:54;;;;;;;14.95;6.20;;;;;;;;;;4974026;28;20264;-61
2023/03/05 01:40:24;;;;;;;15.65;5.93;;;;;;;;;;5004050;28;20072;-61
2023/03/05 01:42:57;;;;;;;13.23;6.23;;;;;;;;;;4979330;28;20041;-60
2023/03/05 01:45:25;;;;;;;12.65;5.53;;;;;;;;;;4995959;28;20056;-62
2023/03/05 01:47:52;;;;;;;20.33;6.35;;;;;;;;;;4980178;28;20092;-61
2023/03/05 01:50:24;;;;;;;18.08;6.53;;;;;;;;;;4992978;28;20045;-62
2023/03/05 01:52:54;;;;;;;17.02;6.43;;;;;;;;;;4985944;28;20340;-60
2023/03/05 01:55:23;;;;;;;16.13;6.17;;;;;;;;;;4995922;28;20045;-62
2023/03/05 01:57:52;;;;;;;17.27;6.70;;;;;;;;;;4973601;28;20037;-62
2023/03/05 02:00:26;;;;;;;17.50;6.43;;;;;;;;;;5005959;28;20115;-62
2023/03/05 02:02:54;;;;;;;23.23;8.73;;;;;;;;;;4990846;28;20485;-62
2023/03/05 02:05:25;;;;;;;22.02;8.88;;;;;;;;;;4979576;28;20081;-61
2023/03/05 02:07:55;;;;;;;22.17;9.67;;;;;;;;;;4969228;28;20103;-61
2023/03/05 02:10:24;;;;;;;21.10;8.80;;;;;;;;;;4992607;28;20116;-61
2023/03/05 02:12:53;;;;;;;25.30;9.40;;;;;;;;;;5003017;28;20586;-61
2023/03/05 02:15:21;;;;;;;21.52;9.15;;;;;;;;;;4975604;28;20042;-61
2023/03/05 02:17:48;;;;;;;21.10;8.68;;;;;;;;;;4997665;28;20038;-61
2023/03/05 02:20:18;;;;;;;26.37;9.47;;;;;;;;;;4993243;28;20046;-61
2023/03/05 02:22:47;;;;;;;24.88;8.88;;;;;;;;;;4988405;28;20478;-60
2023/03/05 02:25:16;;;;;;;24.52;8.82;;;;;;;;;;4982299;28;20088;-61
2023/03/05 02:27:46;;;;;;;21.92;8.90;;;;;;;;;;4996321;28;20495;-61
2023/03/05 02:30:14;;;;;;;24.55;9.05;;;;;;;;;;4975587;28;20573;-61
2023/03/05 02:32:41;;;;;;;19.07;7.83;;;;;;;;;;4988002;28;20471;-61
2023/03/05 02:35:09;;;;;;;23.13;9.52;;;;;;;;;;4983121;28;20064;-61
2023/03/05 02:37:37;;;;;;;19.73;8.95;;;;;;;;;;4959491;28;20049;-60
2023/03/05 02:40:07;;;;;;;20.63;8.65;;;;;;;;;;4991478;28;20076;-61
2023/03/05 02:42:35;;;;;;;20.58;8.73;;;;;;;;;;4969701;28;20689;-60
2023/03/05 02:45:02;;;;;;;19.37;8.77;;;;;;;;;;4983247;28;20037;-61
2023/03/05 02:47:30;;;;;;;19.40;8.32;;;;;;;;;;4990323;28;20136;-60
2023/03/05 02:49:58;;;;;;;21.27;9.27;;;;;;;;;;4988370;28;20061;-60
2023/03/05 02:52:26;;;;;;;19.33;8.57;;;;;;;;;;4988089;28;20347;-61
2023/03/05 02:54:55;;;;;;;20.35;9.23;;;;;;;;;;4993437;28;20088;-61
2023/03/05 02:57:24;;;;;;;24.87;9.57;;;;;;;;;;4993644;28;20481;-62
2023/03/05 02:59:52;;;;;;;21.63;8.77;;;;;;;;;;4982895;28;20084;-59
2023/03/05 03:02:20;;;;;;;19.02;8.05;;;;;;;;;;4993201;28;20037;-61
2023/03/05 03:04:48;;;;;;;19.23;8.35;;;;;;;;;;4993093;28;20038;-61
2023/03/05 03:07:16;;;;;;;20.30;8.45;;;;;;;;;;4986393;28;20856;-61
2023/03/05 03:09:44;;;;;;;18.80;7.77;;;;;;;;;;4990501;28;20045;-61
2023/03/05 03:12:11;;;;;;;20.42;8.20;;;;;;;;;;4984868;28;20562;-61
2023/03/05 03:14:41;;;;;;;22.83;8.60;;;;;;;;;;4995686;28;20087;-61
2023/03/05 03:17:10;;;;;;;18.88;7.60;;;;;;;;;;4983100;28;20116;-61
2023/03/05 03:19:38;;;;;;;18.75;7.45;;;;;;;;;;4988405;28;20051;-62
2023/03/05 03:22:05;;;;;;;18.57;7.77;;;;;;;;;;4976499;28;20656;-61
2023/03/05 03:24:34;;;;;;;18.58;7.47;;;;;;;;;;4992738;28;20125;-61
2023/03/05 03:27:01;;;;;;;21.55;8.38;;;;;;;;;;4993192;28;20558;-61
2023/03/05 03:29:29;;;;;;;19.65;8.32;;;;;;;;;;4982037;28;20049;-61
2023/03/05 03:31:58;;;;;;;23.17;8.88;;;;;;;;;;4987251;28;20511;-62
2023/03/05 03:34:26;;;;;;;22.33;8.63;;;;;;;;;;4993529;28;20037;-62
2023/03/05 03:36:54;;;;;;;23.70;8.70;;;;;;;;;;4980870;28;20497;-60
2023/03/05 03:39:22;;;;;;;26.60;10.43;;;;;;;;;;4988106;28;20091;-62
2023/03/05 03:41:51;;;;;;;21.92;8.90;;;;;;;;;;4978134;28;20081;-62
2023/03/05 03:44:20;;;;;;;22.23;9.07;;;;;;;;;;4989578;28;20104;-62
2023/03/05 03:46:49;;;;;;;24.03;9.70;;;;;;;;;;4984104;28;20034;-61
2023/03/05 03:51:58;;;;;;;22.55;8.90;;;;;;;;;;4870233;22;20065;-46
2023/03/05 03:54:25;;;;;;;22.23;9.25;;;;;;;;;;4982441;28;20037;-45
2023/03/05 03:56:53;;;;;;;24.48;9.30;;;;;;;;;;5003752;28;20037;-47
2023/03/05 03:59:21;;;;;;;31.00;11.63;;;;;;;;;;4982187;28;20038;-45
2023/03/05 04:01:49;;;;;;;25.75;10.35;;;;;;;;;;4961095;28;20075;-48
2023/03/05 04:04:17;;;;;;;26.95;10.30;;;;;;;;;;4984446;28;20228;-45
2023/03/05 04:06:47;;;;;;;26.20;10.02;;;;;;;;;;4980470;28;20107;-46
2023/03/05 04:09:17;;;;;;;25.38;9.50;;;;;;;;;;4992616;28;20362;-47
2023/03/05 04:11:44;;;;;;;25.03;9.90;;;;;;;;;;4974692;28;20045;-45
2023/03/05 04:14:12;;;;;;;30.38;11.52;;;;;;;;;;4990271;28;20091;-45
2023/03/05 04:16:40;;;;;;;28.42;11.50;;;;;;;;;;5001378;28;20037;-46
2023/03/05 04:19:07;;;;;;;32.78;12.82;;;;;;;;;;4950951;28;20773;-45
2023/03/05 04:21:35;;;;;;;30.77;11.75;;;;;;;;;;5000710;28;20107;-45
2023/03/05 04:24:03;;;;;;;33.17;12.53;;;;;;;;;;4979186;28;20700;-46
2023/03/05 04:26:32;;;;;;;32.33;12.40;;;;;;;;;;5002299;28;20065;-47
2023/03/05 04:28:59;;;;;;;28.15;11.52;;;;;;;;;;4981331;28;20026;-45
2023/03/05 04:31:27;;;;;;;23.95;10.32;;;;;;;;;;4994726;28;20037;-46
2023/03/05 04:33:55;;;;;;;31.55;11.88;;;;;;;;;;4985672;28;20569;-46
2023/03/05 04:36:23;;;;;;;27.67;10.47;;;;;;;;;;4992391;28;21937;-47
2023/03/05 04:38:50;;;;;;;27.30;10.13;;;;;;;;;;4999419;28;20045;-45
2023/03/05 04:41:18;;;;;;;29.60;10.90;;;;;;;;;;4976357;28;20132;-47
2023/03/05 04:43:47;;;;;;;26.02;10.60;;;;;;;;;;5004683;28;20055;-45
2023/03/05 04:46:15;;;;;;;25.83;10.20;;;;;;;;;;4989899;28;20120;-46
2023/03/05 04:48:42;;;;;;;24.13;10.87;;;;;;;;;;5003892;28;20033;-48
2023/03/05 04:51:10;;;;;;;31.42;11.20;;;;;;;;;;4987061;28;20111;-46
2023/03/05 04:53:38;;;;;;;27.08;9.93;;;;;;;;;;4996105;28;20119;-46
2023/03/05 04:56:06;;;;;;;26.48;10.40;;;;;;;;;;4983651;28;20095;-47
2023/03/05 04:58:33;;;;;;;29.17;10.95;;;;;;;;;;4991354;28;20757;-47
2023/03/05 05:01:03;;;;;;;29.23;10.87;;;;;;;;;;5004544;28;20045;-45
2023/03/05 05:03:31;;;;;;;28.88;10.35;;;;;;;;;;4976905;28;20553;-45
2023/03/05 05:05:59;;;;;;;26.90;10.40;;;;;;;;;;4991903;28;20046;-45
2023/03/05 05:08:27;;;;;;;28.98;10.30;;;;;;;;;;4982688;28;20120;-45
2023/03/05 05:10:56;;;;;;;26.20;9.43;;;;;;;;;;4989709;28;20041;-45
2023/03/05 05:13:24;;;;;;;25.10;10.00;;;;;;;;;;4985252;28;20144;-46
2023/03/05 05:15:52;;;;;;;33.65;9.95;;;;;;;;;;4997091;28;20114;-45
2023/03/05 05:18:22;;;;;;;27.75;10.55;;;;;;;;;;4994289;28;20088;-46
2023/03/05 05:20:49;;;;;;;24.17;9.07;;;;;;;;;;5004423;28;20128;-48
2023/03/05 05:23:17;;;;;;;28.10;8.70;;;;;;;;;;5003597;28;20054;-45
2023/03/05 05:25:45;;;;;;;22.57;8.53;;;;;;;;;;4981101;28;20069;-46
2023/03/05 05:28:13;;;;;;;25.35;9.32;;;;;;;;;;4997518;28;20053;-47
2023/03/05 05:30:40;;;;;;;23.27;8.10;;;;;;;;;;4998954;28;20103;-45
2023/03/05 05:33:11;;;;;;;22.50;7.90;;;;;;;;;;4995548;28;20425;-48
2023/03/05 05:35:40;;;;;;;17.42;6.72;;;;;;;;;;5004325;28;20049;-45
2023/03/05 05:38:08;;;;;;;21.43;7.17;;;;;;;;;;4991038;28;20029;-47
2023/03/05 05:40:35;;;;;;;18.23;6.47;;;;;;;;;;5013031;28;20136;-47
2023/03/05 05:43:03;;;;;;;15.55;5.85;;;;;;;;;;4983287;28;20069;-46
2023/03/05 05:45:31;;;;;;;14.02;4.97;;;;;;;;;;5007989;28;20491;-45
2023/03/05 05:47:58;;;;;;;13.95;5.30;;;;;;;;;;4995374;28;20037;-45
2023/03/05 05:50:26;;;;;;;12.30;5.10;;;;;;;;;;5003662;28;20061;-46
2023/03/05 05:52:55;;;;;;;12.80;5.38;;;;;;;;;;4987693;28;20339;-45
2023/03/05 05:55:26;;;;;;;14.30;4.50;;;;;;;;;;4999709;28;20041;-46
2023/03/05 05:57:54;;;;;;;11.82;5.15;;;;;;;;;;4999536;28;20065;-45
2023/03/05 06:00:22;;;;;;;15.10;4.85;;;;;;;;;;5001587;28;20038;-45
2023/03/05 06:02:50;;;;;;;12.10;5.10;;;;;;;;;;5007702;28;20046;-45
2023/03/05 06:05:18;;;;;;;13.63;4.38;;;;;;;;;;4990695;28;20034;-45
2023/03/05 06:07:45;;;;;;;11.73;4.57;;;;;;;;;;4993662;28;20038;-44
2023/03/05 06:10:15;;;;;;;9.23;4.38;;;;;;;;;;4980596;28;20466;-46
2023/03/05 06:12:43;;;;;;;11.18;4.43;;;;;;;;;;5003813;28;20053;-46
2023/03/05 06:15:10;;;;;;;11.10;4.83;;;;;;;;;;4991904;28;20048;-47
2023/03/05 06:17:38;;;;;;;8.60;3.67;;;;;;;;;;5003338;28;20050;-45
2023/03/05 06:20:06;;;;;;;13.70;4.38;;;;;;;;;;4985025;28;20061;-47
2023/03/05 06:22:35;;;;;;;9.30;4.10;;;;;;;;;;5003113;28;20136;-46
2023/03/05 06:25:03;;;;;;;11.05;3.72;;;;;;;;;;4996356;28;21598;-46
2023/03/05 06:27:33;;;;;;;10.27;3.40;;;;;;;;;;4986697;28;20044;-46
2023/03/05 06:30:01;;;;;;;9.77;4.28;;;;;;;;;;4993896;28;20219;-47
2023/03/05 06:32:29;;;;;;;12.65;3.97;;;;;;;;;;5000652;28;20163;-47
2023/03/05 06:34:58;;;;;;;8.27;3.42;;;;;;;;;;4983958;28;20129;-46
2023/03/05 06:37:26;;;;;;;10.48;3.72;;;;;;;;;;5006988;28;20087;-47
2023/03/05 06:39:54;;;;;;;15.17;3.40;;;;;;;;;;4988754;28;20221;-46
2023/03/05 06:42:22;;;;;;;9.40;3.38;;;;;;;;;;5008986;28;20128;-47
2023/03/05 06:44:51;;;;;;;9.95;2.80;;;;;;;;;;4991935;28;20049;-45
2023/03/05 06:47:19;;;;;;;9.57;3.63;;;;;;;;;;5003830;28;20045;-45
2023/03/05 06:49:46;;;;;;;9.85;3.55;;;;;;;;;;4972080;28;21296;-47
2023/03/05 06:52:14;;;;;;;11.23;3.70;;;;;;;;;;4994289;28;20061;-47
2023/03/05 06:54:41;;;;;;;8.02;3.15;;;;;;;;;;4989565;28;20120;-46
2023/03/05 06:57:10;;;;;;;11.27;3.50;;;;;;;;;;5002609;28;20045;-45
2023/03/05 06:59:38;;;;;;;10.60;3.42;;;;;;;;;;4997228;28;20056;-46
2023/03/05 07:02:09;;;;;;;9.20;3.42;;;;;;;;;;4985391;28;20167;-46
2023/03/05 07:04:36;;;;;;;8.90;3.57;;;;;;;;;;4995309;28;20158;-46
2023/03/05 07:07:04;;;;;;;9.00;3.55;;;;;;;;;;4987830;28;20474;-47
2023/03/05 07:09:41;;;;;;;10.65;3.88;;;;;;;;;;4979670;28;20503;-45
2023/03/05 07:12:09;;;;;;;9.48;3.47;;;;;;;;;;4980063;28;20739;-46
2023/03/05 07:14:37;;;;;;;11.68;3.40;;;;;;;;;;5005275;28;20071;-47
2023/03/05 07:17:05;;;;;;;11.27;4.23;;;;;;;;;;4987330;28;20099;-46
2023/03/05 07:19:34;;;;;;;8.25;3.25;;;;;;;;;;5002478;28;20045;-46
2023/03/05 07:22:01;;;;;;;11.75;3.80;;;;;;;;;;4992617;28;20261;-46
2023/03/05 07:24:29;;;;;;;10.70;3.83;;;;;;;;;;4999263;28;20132;-46
2023/03/05 07:26:57;;;;;;;11.40;3.58;;;;;;;;;;5001676;28;20554;-45
2023/03/05 07:29:25;;;;;;;8.90;2.80;;;;;;;;;;5006177;28;20042;-45
2023/03/05 07:31:53;;;;;;;9.95;3.60;;;;;;;;;;4990998;28;20124;-45
2023/03/05 07:34:26;;;;;;;8.85;3.63;;;;;;;;;;5009953;28;20055;-46
2023/03/05 07:36:56;;;;;;;12.98;4.25;;;;;;;;;;5000592;28;20069;-45
2023/03/05 07:39:24;;;;;;;10.98;4.03;;;;;;;;;;4973002;28;20132;-46
2023/03/05 07:41:51;;;;;;;10.27;3.90;;;;;;;;;;4993053;28;20087;-45
2023/03/05 07:44:19;;;;;;;10.38;4.03;;;;;;;;;;4986763;28;20045;-46
2023/03/05 07:46:46;;;;;;;10.05;3.88;;;;;;;;;;4998959;28;20119;-46
2023/03/05 07:49:14;;;;;;;12.57;3.95;;;;;;;;;;5001360;28;20383;-46
2023/03/05 07:51:42;;;;;;;9.65;3.70;;;;;;;;;;5001245;28;20081;-45
2023/03/05 07:54:11;;;;;;;10.07;3.27;;;;;;;;;;4989214;28;20037;-46
2023/03/05 07:56:38;;;;;;;12.15;4.20;;;;;;;;;;5010956;28;20061;-46
2023/03/05 07:59:07;;;;;;;10.45;3.78;;;;;;;;;;4991505;28;20072;-46
2023/03/05 08:01:35;;;;;;;10.80;3.95;;;;;;;;;;4995316;28;20072;-45
2023/03/05 08:04:03;;;;;;;10.55;4.38;;;;;;;;;;4982616;28;20071;-45
2023/03/05 08:06:31;;;;;;;12.33;4.10;;;;;;;;;;4989462;28;20041;-47
2023/03/05 08:08:59;;;;;;;9.73;3.67;;;;;;;;;;4995620;28;20128;-45
2023/03/05 08:11:28;;;;;;;9.50;3.38;;;;;;;;;;4980461;28;20140;-48
2023/03/05 08:13:58;;;;;;;11.45;3.85;;;;;;;;;;4968729;28;20033;-47
2023/03/05 08:16:26;;;;;;;9.63;3.55;;;;;;;;;;5003805;28;20041;-43
2023/03/05 08:18:55;;;;;;;11.80;4.90;;;;;;;;;;4983919;28;20557;-45
2023/03/05 08:21:25;;;;;;;10.82;4.05;;;;;;;;;;5005657;28;20495;-45
2023/03/05 08:23:53;;;;;;;9.90;3.90;;;;;;;;;;4985633;28;20494;-47
2023/03/05 08:26:22;;;;;;;10.68;4.20;;;;;;;;;;5002637;28;20047;-45
2023/03/05 08:28:51;;;;;;;12.32;4.18;;;;;;;;;;4998706;28;20141;-45
2023/03/05 08:31:20;;;;;;;11.47;4.17;;;;;;;;;;4988652;28;20549;-47
2023/03/05 08:33:48;;;;;;;12.25;3.67;;;;;;;;;;4992726;28;20132;-45
2023/03/05 08:36:16;;;;;;;14.73;3.90;;;;;;;;;;4993907;28;20091;-44
2023/03/05 08:38:45;;;;;;;12.40;4.90;;;;;;;;;;4994113;28;20874;-46
2023/03/05 08:41:14;;;;;;;8.30;3.38;;;;;;;;;;4974503;28;20033;-47
2023/03/05 08:43:42;;;;;;;9.67;4.00;;;;;;;;;;4992627;28;20049;-45
2023/03/05 08:46:11;;;;;;;11.75;4.40;;;;;;;;;;4985253;28;20127;-46
2023/03/05 08:48:39;;;;;;;10.13;3.70;;;;;;;;;;5004168;28;20041;-45
2023/03/05 08:51:07;;;;;;;10.85;4.88;;;;;;;;;;4980361;28;20111;-46
2023/03/05 08:53:35;;;;;;;9.70;4.22;;;;;;;;;;5003377;28;20133;-47
2023/03/05 08:56:03;;;;;;;13.10;4.23;;;;;;;;;;4963433;28;20266;-45
2023/03/05 08:58:31;;;;;;;9.70;4.22;;;;;;;;;;4995837;28;20087;-45
2023/03/05 09:00:59;;;;;;;13.40;4.05;;;;;;;;;;4999693;28;20042;-45
2023/03/05 09:03:28;;;;;;;10.40;4.07;;;;;;;;;;4994380;28;21381;-47
2023/03/05 09:05:58;;;;;;;10.13;3.60;;;;;;;;;;4997507;28;20088;-45
2023/03/05 09:08:26;;;;;;;8.70;3.30;;;;;;;;;;4988083;28;20076;-45
2023/03/05 09:10:54;;;;;;;10.50;3.85;;;;;;;;;;5004195;28;20499;-46
2023/03/05 09:13:26;;;;;;;9.05;3.47;;;;;;;;;;5002124;28;20546;-46
2023/03/05 09:15:56;;;;;;;9.43;3.67;;;;;;;;;;5006642;28;20041;-46
2023/03/05 09:18:24;;;;;;;9.50;3.63;;;;;;;;;;4994451;28;20907;-46
2023/03/05 09:20:53;;;;;;;9.87;3.47;;;;;;;;;;4999395;28;20553;-47
2023/03/05 09:23:25;;;;;;;9.20;3.25;;;;;;;;;;4993870;28;20463;-45
2023/03/05 09:25:52;;;;;;;9.70;3.20;;;;;;;;;;4976850;28;20124;-45
2023/03/05 09:28:20;;;;;;;10.43;3.45;;;;;;;;;;4978969;28;21222;-46
2023/03/05 09:30:48;;;;;;;9.48;3.15;;;;;;;;;;5005877;28;20466;-46
2023/03/05 09:33:16;;;;;;;9.70;3.10;;;;;;;;;;4993461;28;20107;-45
2023/03/05 09:35:43;;;;;;;8.88;3.13;;;;;;;;;;5010587;28;20041;-46
2023/03/05 09:38:13;;;;;;;9.93;3.90;;;;;;;;;;4988314;28;20152;-45
2023/03/05 09:40:43;;;;;;;10.18;2.88;;;;;;;;;;5007769;28;20520;-45
2023/03/05 09:43:13;;;;;;;10.20;3.33;;;;;;;;;;4993519;28;20120;-46
2023/03/05 09:45:45;;;;;;;8.17;2.97;;;;;;;;;;4993905;28;20120;-46
2023/03/05 09:48:15;;;;;;;9.27;3.10;;;;;;;;;;4997653;28;20042;-45
2023/03/05 09:50:46;;;;;;;7.93;3.30;;;;;;;;;;4992335;28;20483;-48
2023/03/05 09:53:21;;;;;;;9.00;3.25;;;;;;;;;;5004247;28;20503;-46
2023/03/05 09:55:50;;;;;;;10.35;2.85;;;;;;;;;;4997197;28;20069;-48
2023/03/05 09:58:22;;;;;;;7.00;2.50;;;;;;;;;;4998596;28;20641;-46
2023/03/05 10:00:52;;;;;;;6.15;2.35;;;;;;;;;;5000124;28;20441;-49
2023/03/05 10:03:25;;;;;;;8.30;2.42;;;;;;;;;;4988819;28;20561;-46
2023/03/05 10:05:58;;;;;;;8.20;2.85;;;;;;;;;;5002267;28;20053;-45
2023/03/05 10:08:30;;;;;;;12.25;2.92;;;;;;;;;;4987963;28;20061;-45
2023/03/05 10:10:59;;;;;;;10.00;3.20;;;;;;;;;;4989130;28;20543;-45
2023/03/05 10:13:32;;;;;;;12.57;2.85;;;;;;;;;;4999001;28;20049;-46
2023/03/05 10:16:05;;;;;;;10.00;2.95;;;;;;;;;;4997155;28;20072;-44
2023/03/05 10:18:35;;;;;;;8.10;2.88;;;;;;;;;;4983568;28;20104;-45
2023/03/05 10:21:04;;;;;;;10.20;3.20;;;;;;;;;;4987173;28;20132;-45
2023/03/05 10:23:37;;;;;;;7.20;2.27;;;;;;;;;;4988933;28;20045;-46
2023/03/05 10:26:14;;;;;;;6.75;2.28;;;;;;;;;;5000764;28;20095;-44
2023/03/05 10:28:48;;;;;;;6.88;2.67;;;;;;;;;;4971827;28;20636;-44
2023/03/05 10:31:24;;;;;;;9.38;2.65;;;;;;;;;;5011068;28;20056;-47
2023/03/05 10:33:58;;;;;;;9.07;3.03;;;;;;;;;;4995171;28;20551;-45
2023/03/05 10:36:43;;;;;;;7.27;2.37;;;;;;;;;;4994825;28;20120;-44
2023/03/05 10:39:39;;;;;;;10.43;2.67;;;;;;;;;;4994003;28;20535;-46
2023/03/05 10:42:10;;;;;;;9.48;3.17;;;;;;;;;;4989533;28;20156;-48
2023/03/05 10:44:41;;;;;;;8.27;2.85;;;;;;;;;;4965931;28;20672;-48
2023/03/05 10:47:14;;;;;;;12.27;2.97;;;;;;;;;;5002047;28;20064;-48
2023/03/05 10:49:48;;;;;;;6.67;2.80;;;;;;;;;;4989094;28;20094;-45
2023/03/05 10:52:17;;;;;;;7.07;2.40;;;;;;;;;;4996783;28;20341;-46
2023/03/05 10:54:46;;;;;;;7.13;2.60;;;;;;;;;;4985902;28;20046;-46
2023/03/05 10:57:16;;;;;;;6.88;2.35;;;;;;;;;;4995584;28;20557;-45
2023/03/05 10:59:46;;;;;;;6.90;2.22;;;;;;;;;;5000398;28;20565;-47
2023/03/05 11:02:14;;;;;;;7.73;2.40;;;;;;;;;;4989909;28;20072;-45
2023/03/05 11:04:42;;;;;;;10.15;2.15;;;;;;;;;;5005954;28;20037;-45
2023/03/05 11:07:30;;;;;;;6.82;2.33;;;;;;;;;;4290780;28;10000111;-45
2023/03/05 11:10:05;;;;;;;7.18;2.13;;;;;;;;;;4990576;28;20083;-46
2023/03/05 11:12:33;;;;;;;6.03;1.70;;;;;;;;;;4972290;28;20045;-45
2023/03/05 11:15:06;;;;;;;8.45;2.15;;;;;;;;;;5006549;28;20157;-46
2023/03/05 11:17:36;;;;;;;5.93;2.05;;;;;;;;;;4997952;28;20584;-45
2023/03/05 11:20:22;;;;;;;9.15;2.15;;;;;;;;;;4981633;28;20081;-47
2023/03/05 11:23:02;;;;;;;7.80;2.35;;;;;;;;;;5007402;28;20049;-45
2023/03/05 11:25:34;;;;;;;8.07;2.60;;;;;;;;;;4986989;28;20608;-45
2023/03/05 11:28:03;;;;;;;7.90;2.20;;;;;;;;;;4989992;28;20559;-46
2023/03/05 11:30:31;;;;;;;5.72;2.33;;;;;;;;;;4980740;28;20033;-46
2023/03/05 11:33:10;;;;;;;7.75;2.95;;;;;;;;;;4978937;28;20129;-45
2023/03/05 11:35:38;;;;;;;9.88;2.90;;;;;;;;;;4988495;28;20065;-46
2023/03/05 11:38:14;;;;;;;6.80;2.47;;;;;;;;;;5000539;28;20076;-46
2023/03/05 11:40:43;;;;;;;10.10;2.60;;;;;;;;;;5002675;28;20673;-46
2023/03/05 11:43:14;;;;;;;6.53;2.17;;;;;;;;;;4638236;28;9999896;-47
2023/03/05 11:45:44;;;;;;;5.97;1.50;;;;;;;;;;5007615;28;20135;-45
2023/03/05 11:48:16;;;;;;;6.30;1.80;;;;;;;;;;4985980;28;20075;-45
2023/03/05 11:50:45;;;;;;;7.18;2.30;;;;;;;;;;5001897;28;20053;-46
2023/03/05 11:53:14;;;;;;;6.53;1.83;;;;;;;;;;4989144;28;20514;-48
2023/03/05 11:55:43;;;;;;;7.20;1.80;;;;;;;;;;5004825;28;20610;-45
2023/03/05 11:58:22;;;;;;;6.05;1.98;;;;;;;;;;4983039;28;20038;-47
2023/03/05 12:00:50;;;;;;;5.90;1.70;;;;;;;;;;5004738;28;20072;-46
2023/03/05 12:03:18;;;;;;;6.25;2.05;;;;;;;;;;4986010;28;20120;-47
2023/03/05 12:05:47;;;;;;;7.80;2.00;;;;;;;;;;5003987;28;20041;-47
2023/03/05 12:08:18;;;;;;;7.05;2.00;;;;;;;;;;4984824;28;20061;-47
2023/03/05 12:10:46;;;;;;;6.80;2.10;;;;;;;;;;4978949;28;20121;-46
2023/03/05 12:13:20;;;;;;;6.90;1.70;;;;;;;;;;5004089;28;20073;-46
2023/03/05 12:16:00;;;;;;;6.40;1.45;;;;;;;;;;4997605;28;20526;-46
2023/03/05 12:18:33;;;;;;;8.07;1.90;;;;;;;;;;4984366;28;20038;-46
2023/03/05 12:21:05;;;;;;;6.72;2.30;;;;;;;;;;4992602;28;20132;-47
2023/03/05 12:23:44;;;;;;;8.90;1.88;;;;;;;;;;4997506;28;20463;-46
2023/03/05 12:26:12;;;;;;;6.80;1.97;;;;;;;;;;4985584;28;20074;-50
2023/03/05 12:28:55;;;;;;;7.25;1.88;;;;;;;;;;4974966;28;20739;-45
2023/03/05 12:31:38;;;;;;;10.30;1.90;;;;;;;;;;5005964;28;20041;-46
2023/03/05 12:34:25;;;;;;;6.90;2.08;;;;;;;;;;4996133;28;20041;-48
2023/03/05 12:36:53;;;;;;;6.30;1.65;;;;;;;;;;4990392;28;20095;-48
2023/03/05 12:39:39;;;;;;;5.27;1.27;;;;;;;;;;5001034;28;20136;-47
2023/03/05 12:42:21;;;;;;;9.48;2.08;;;;;;;;;;5002486;28;20038;-46
2023/03/05 12:45:19;;;;;;;8.00;2.10;;;;;;;;;;4981101;28;21412;-45
2023/03/05 12:47:48;;;;;;;7.68;2.10;;;;;;;;;;4989532;28;20131;-46
2023/03/05 12:50:31;;;;;;;7.43;2.10;;;;;;;;;;4998017;28;20041;-45
2023/03/05 12:53:10;;;;;;;7.23;2.00;;;;;;;;;;4970369;28;20066;-47
2023/03/05 12:55:51;;;;;;;8.05;2.05;;;;;;;;;;4983599;28;20068;-46
2023/03/05 12:58:24;;;;;;;7.43;2.40;;;;;;;;;;4977228;28;20651;-46
2023/03/05 13:00:56;;;;;;;7.93;2.00;;;;;;;;;;4986868;28;20038;-45
2023/03/05 13:03:27;;;;;;;8.57;2.47;;;;;;;;;;4979485;28;20047;-48
2023/03/05 13:05:56;;;;;;;10.43;2.17;;;;;;;;;;4966978;28;20930;-46
2023/03/05 13:08:24;;;;;;;8.15;2.00;;;;;;;;;;4957564;28;20574;-46
2023/03/05 13:10:55;;;;;;;7.32;2.13;;;;;;;;;;4978907;28;20045;-45
2023/03/05 13:13:24;;;;;;;7.28;2.10;;;;;;;;;;4967629;28;20384;-45
2023/03/05 13:15:53;;;;;;;6.72;1.98;;;;;;;;;;4982771;28;20041;-45
2023/03/05 13:18:23;;;;;;;7.30;1.67;;;;;;;;;;4976074;28;20061;-46
2023/03/05 13:21:01;;;;;;;7.28;2.47;;;;;;;;;;4977050;28;20046;-45
2023/03/05 13:23:28;;;;;;;7.75;2.22;;;;;;;;;;4958281;28;20137;-45
2023/03/05 13:25:57;;;;;;;9.80;2.67;;;;;;;;;;4975527;28;20093;-45
2023/03/05 13:28:25;;;;;;;8.70;3.00;;;;;;;;;;4961125;28;20049;-45
2023/03/05 13:30:56;;;;;;;5.87;1.77;;;;;;;;;;4981980;28;20264;-45
2023/03/05 13:33:26;;;;;;;7.78;2.97;;;;;;;;;;4967208;28;20042;-45
2023/03/05 13:35:54;;;;;;;9.48;3.10;;;;;;;;;;4985552;28;20049;-44
2023/03/05 13:38:24;;;;;;;8.60;2.15;;;;;;;;;;4957218;28;20241;-45
2023/03/05 13:41:03;;;;;;;7.43;2.33;;;;;;;;;;4992775;28;20103;-44
2023/03/05 13:43:30;;;;;;;8.13;2.37;;;;;;;;;;4624529;28;9999685;-46
2023/03/05 13:45:59;;;;;;;8.75;3.10;;;;;;;;;;4990880;28;20080;-45
2023/03/05 13:48:33;;;;;;;7.47;2.05;;;;;;;;;;4982832;28;20077;-45
2023/03/05 13:51:05;;;;;;;9.57;2.40;;;;;;;;;;4983839;28;20101;-46
2023/03/05 13:53:33;;;;;;;7.27;2.00;;;;;;;;;;4981914;28;20547;-45
2023/03/05 13:56:02;;;;;;;9.90;2.08;;;;;;;;;;4620489;28;10000611;-46
2023/03/05 13:58:51;;;;;;;9.73;2.63;;;;;;;;;;4963447;28;20042;-46
2023/03/05 14:01:26;;;;;;;7.07;1.98;;;;;;;;;;4980882;28;20046;-45
2023/03/05 14:03:56;;;;;;;7.35;3.10;;;;;;;;;;4996034;28;20514;-45
2023/03/05 14:06:26;;;;;;;7.03;2.10;;;;;;;;;;4972455;28;20507;-46
2023/03/05 14:08:58;;;;;;;9.18;2.90;;;;;;;;;;4982063;28;20835;-45
2023/03/05 14:11:26;;;;;;;10.63;2.67;;;;;;;;;;4985681;28;20057;-45
2023/03/05 14:13:58;;;;;;;8.10;2.50;;;;;;;;;;4972650;28;20148;-45
2023/03/05 14:16:31;;;;;;;9.30;2.72;;;;;;;;;;4986597;28;20060;-45
2023/03/05 14:18:59;;;;;;;10.67;2.50;;;;;;;;;;4962532;28;20637;-44
2023/03/05 14:21:47;;;;;;;8.93;2.40;;;;;;;;;;4968278;28;20041;-45
2023/03/05 14:24:20;;;;;;;9.60;2.63;;;;;;;;;;4976559;28;20448;-45
2023/03/05 14:26:49;;;;;;;8.60;2.95;;;;;;;;;;4958733;28;20370;-46
2023/03/05 14:29:19;;;;;;;6.43;2.30;;;;;;;;;;4965305;28;20085;-45
2023/03/05 14:31:49;;;;;;;12.07;3.07;;;;;;;;;;4968577;28;20129;-46
2023/03/05 14:34:20;;;;;;;6.63;2.42;;;;;;;;;;4977488;28;20066;-47
2023/03/05 14:36:49;;;;;;;7.60;2.88;;;;;;;;;;4970677;28;20489;-50
2023/03/05 14:39:30;;;;;;;11.52;3.10;;;;;;;;;;4979094;28;20116;-45
2023/03/05 14:42:12;;;;;;;6.78;2.38;;;;;;;;;;4970032;28;20045;-47
2023/03/05 14:44:40;;;;;;;10.20;3.03;;;;;;;;;;4980036;28;20073;-46
2023/03/05 14:47:09;;;;;;;8.05;2.70;;;;;;;;;;4983801;28;20105;-46
2023/03/05 14:49:37;;;;;;;10.35;2.90;;;;;;;;;;4974553;28;20565;-48
2023/03/05 14:52:05;;;;;;;9.48;3.20;;;;;;;;;;4997421;28;20683;-49